Map

Track Data

SID SEASON NUMBER BASIN SUBBASIN NAME ISO_TIME NATURE LAT LON WMO_WIND WMO_PRES WMO_AGENCY TRACK_TYPE DIST2LAND LANDFALL IFLAG USA_AGENCY USA_ATCF_ID USA_LAT USA_LON USA_RECORD USA_STATUS USA_WIND USA_PRES USA_SSHS USA_R34_NE USA_R34_SE USA_R34_SW USA_R34_NW USA_R50_NE USA_R50_SE USA_R50_SW USA_R50_NW USA_R64_NE USA_R64_SE USA_R64_SW USA_R64_NW USA_POCI USA_ROCI USA_RMW USA_EYE TOKYO_LAT TOKYO_LON TOKYO_GRADE TOKYO_WIND TOKYO_PRES TOKYO_R50_DIR TOKYO_R50_LONG TOKYO_R50_SHORT TOKYO_R30_DIR TOKYO_R30_LONG TOKYO_R30_SHORT TOKYO_LAND CMA_LAT CMA_LON CMA_CAT CMA_WIND CMA_PRES HKO_LAT HKO_LON HKO_CAT HKO_WIND HKO_PRES NEWDELHI_LAT NEWDELHI_LON NEWDELHI_GRADE NEWDELHI_WIND NEWDELHI_PRES NEWDELHI_CI NEWDELHI_DP NEWDELHI_POCI REUNION_LAT REUNION_LON REUNION_TYPE REUNION_WIND REUNION_PRES REUNION_TNUM REUNION_CI REUNION_RMW REUNION_R34_NE REUNION_R34_SE REUNION_R34_SW REUNION_R34_NW REUNION_R50_NE REUNION_R50_SE REUNION_R50_SW REUNION_R50_NW REUNION_R64_NE REUNION_R64_SE REUNION_R64_SW REUNION_R64_NW BOM_LAT BOM_LON BOM_TYPE BOM_WIND BOM_PRES BOM_TNUM BOM_CI BOM_RMW BOM_R34_NE BOM_R34_SE BOM_R34_SW BOM_R34_NW BOM_R50_NE BOM_R50_SE BOM_R50_SW BOM_R50_NW BOM_R64_NE BOM_R64_SE BOM_R64_SW BOM_R64_NW BOM_ROCI BOM_POCI BOM_EYE BOM_POS_METHOD BOM_PRES_METHOD NADI_LAT NADI_LON NADI_CAT NADI_WIND NADI_PRES WELLINGTON_LAT WELLINGTON_LON WELLINGTON_WIND WELLINGTON_PRES DS824_LAT DS824_LON DS824_STAGE DS824_WIND DS824_PRES TD9636_LAT TD9636_LON TD9636_STAGE TD9636_WIND TD9636_PRES TD9635_LAT TD9635_LON TD9635_WIND TD9635_PRES TD9635_ROCI NEUMANN_LAT NEUMANN_LON NEUMANN_CLASS NEUMANN_WIND NEUMANN_PRES MLC_LAT MLC_LON MLC_CLASS MLC_WIND MLC_PRES USA_GUST BOM_GUST BOM_GUST_PER REUNION_GUST REUNION_GUST_PER USA_SEAHGT USA_SEARAD_NE USA_SEARAD_SE USA_SEARAD_SW USA_SEARAD_NW STORM_SPEED STORM_DIR
1947217N20136 1947 50 WP MM GWEN 1947-08-04 12:00:00 TS 20.0000 136.300 main 1350 1258 O________OOO__ jtwc_wp WP071947 20.0000 136.300 80 1 20.0000 136.300 TC 80 20.0000 136.300 3 80 20.0000 136.300 80 978 360 20 357
1947217N20136 1947 50 WP MM GWEN 1947-08-04 15:00:00 TS 20.9865 136.265 main 1248 1153 P________PPP__ WP071947 21.0001 136.241 80 1 21.0001 136.241 TC 80 20.9455 136.338 3 82 21.0001 136.241 80 977 330 20 358
1947217N20136 1947 50 WP MM GWEN 1947-08-04 18:00:00 TS 21.9806 136.233 main 1143 1055 O________OPO__ jtwc_wp WP071947 22.0000 136.200 80 1 22.0000 136.200 TC 80 21.9226 136.332 3 85 22.0000 136.200 80 976 300 20 358
1947217N20136 1947 50 WP MM GWEN 1947-08-04 21:00:00 TS 23.0000 136.183 main 1045 939 P________PPP__ WP071947 23.0123 136.166 85 2 23.0123 136.166 TC 85 22.9633 136.235 3 87 23.0123 136.166 85 975 240 21 354
1947217N20136 1947 50 WP MM GWEN 1947-08-05 00:00:00 TS 24.1000 136.000 main 930 794 O________OOO__ jtwc_wp WP071947 24.1000 136.000 90 2 24.1000 136.000 TC 90 24.1000 136.000 4 90 24.1000 136.000 90 974 180 24 346
1947217N20136 1947 50 WP MM GWEN 1947-08-05 03:00:00 TS 25.3481 135.550 main 789 654 P________PPP__ WP071947 25.3505 135.532 90 2 25.3505 135.532 TC 90 25.3409 135.602 4 90 25.3505 135.532 90 972 180 27 341
1947217N20136 1947 50 WP MM GWEN 1947-08-05 06:00:00 TS 26.5991 135.031 main 639 521 O________OPO__ jtwc_wp WP071947 26.6000 135.000 90 2 26.6000 135.000 TC 90 26.5966 135.124 4 90 26.6000 135.000 90 971 180 26 341
1947217N20136 1947 50 WP MM GWEN 1947-08-05 09:00:00 TS 27.7657 134.634 main 506 417 P________PPP__ WP071947 27.7697 134.617 90 2 27.7697 134.617 TC 90 27.7537 134.683 4 90 27.7697 134.617 90 969 180 22 345
1947217N20136 1947 50 WP MM GWEN 1947-08-05 12:00:00 TS 28.7000 134.400 main 417 378 O________OOO__ jtwc_wp WP071947 28.7000 134.400 90 2 28.7000 134.400 TC 90 28.7000 134.400 4 90 28.7000 134.400 90 967 180 15 351
1947217N20136 1947 50 WP MM GWEN 1947-08-05 15:00:00 TS 29.2738 134.364 main 370 356 P________PPP__ WP071947 29.2621 134.344 90 2 29.2621 134.344 TC 90 29.3088 134.424 4 87 29.2621 134.344 90 965 180 9 7
1947217N20136 1947 50 WP MM GWEN 1947-08-05 18:00:00 TS 29.6259 134.532 main 358 351 O________OPO__ jtwc_wp WP071947 29.6000 134.500 90 2 29.6000 134.500 TC 90 29.7037 134.627 4 85 29.6000 134.500 90 963 180 8 32
1947217N20136 1947 50 WP MM GWEN 1947-08-05 21:00:00 TS 29.9517 134.854 main 350 346 P________PPP__ WP071947 29.9450 134.825 85 2 29.9450 134.825 TC 85 29.9719 134.942 4 82 29.9450 134.825 85 964 210 9 49
1947217N20136 1947 50 WP MM GWEN 1947-08-06 00:00:00 TS 30.2000 135.300 main 350 334 O________OOO__ jtwc_wp WP071947 30.2000 135.300 80 1 30.2000 135.300 TC 80 30.2000 135.300 4 80 30.2000 135.300 80 966 240 9 64
1947217N20136 1947 50 WP MM GWEN 1947-08-06 03:00:00 TS 30.3624 135.825 main 334 324 P________PPP__ WP071947 30.3281 135.895 90 2 30.3281 135.895 TC 90 30.4651 135.614 4 85 30.3281 135.895 90 963 210 9 67
1947217N20136 1947 50 WP MM GWEN 1947-08-06 06:00:00 TS 30.5545 136.288 main 315 286 O________OPO__ jtwc_wp WP071947 30.5000 136.400 100 3 30.5000 136.400 TC 100 30.7181 135.952 4 90 30.5000 136.400 100 960 180 8 47
1947217N20136 1947 50 WP MM GWEN 1947-08-06 09:00:00 TS 30.9089 136.498 main 286 235 P________PPP__ WP071947 30.8746 136.568 100 3 30.8746 136.568 TC 100 31.0119 136.289 4 95 30.8746 136.568 100 955 180 9 18
1947217N20136 1947 50 WP MM GWEN 1947-08-06 12:00:00 TS 31.4000 136.600 main 235 177 O________OOO__ jtwc_wp WP071947 31.4000 136.600 100 3 31.4000 136.600 TC 100 31.4000 136.600 4 100 31.4000 136.600 100 950 180 11 10
1947217N20136 1947 50 WP MM GWEN 1947-08-06 15:00:00 TS 31.9951 136.714 main 177 128 P________PPP__ WP071947 32.0198 136.663 95 2 32.0198 136.663 TC 95 31.9207 136.867 4 95 32.0198 136.663 95 954 180 13 10
1947217N20136 1947 50 WP MM GWEN 1947-08-06 18:00:00 TS 32.6705 136.859 main 128 98 O________OPO__ jtwc_wp WP071947 32.7000 136.800 90 2 32.7000 136.800 TC 90 32.5523 137.097 4 90 32.7000 136.800 90 958 180 14 11
1947217N20136 1947 50 WP MM GWEN 1947-08-06 21:00:00 TS 33.3738 137.031 main 93 57 P________PPP__ WP071947 33.3931 136.986 85 2 33.3931 136.986 TC 85 33.2578 137.303 4 85 33.3931 136.986 85 967 150 14 22
1947217N20136 1947 50 WP MM GWEN 1947-08-07 00:00:00 TS 34.0000 137.500 main 64 28 O________OOO__ jtwc_wp WP071947 34.0000 137.500 80 1 34.0000 137.500 TC 80 34.0000 137.500 4 80 34.0000 137.500 80 976 120 17 51
1947217N20136 1947 50 WP MM GWEN 1947-08-07 03:00:00 TS 34.4247 138.583 main 28 11 P________P_P__ WP071947 34.4273 138.594 60 0 34.4273 138.594 TC 60 4 34.4147 138.540 60 981 90 21 71
1947217N20136 1947 50 WP MM GWEN 1947-08-07 06:00:00 TS 34.7000 139.900 main 22 22 O________O_O__ jtwc_wp WP071947 34.7000 139.900 40 0 34.7000 139.900 TC 40 4 34.7000 139.900 40 986 60 20 78
1947217N20136 1947 50 WP MM GWEN 1947-08-07 09:00:00 TS 34.8240 140.910 main 63 63 P________P____ WP071947 34.8240 140.910 40 0 34.8240 140.910 TC 40 4 17 80
1947217N20136 1947 50 WP MM GWEN 1947-08-07 12:00:00 TS 35.0000 142.000 main 126 126 O________O____ jtwc_wp WP071947 35.0000 142.000 40 0 35.0000 142.000 TC 40 20 72
1947217N20136 1947 50 WP MM GWEN 1947-08-07 15:00:00 TS 35.4411 143.285 main 219 219 P________P____ WP071947 35.4411 143.285 40 0 35.4411 143.285 TC 40 26 68
1947217N20136 1947 50 WP MM GWEN 1947-08-07 18:00:00 TS 36.0000 145.000 main 370 370 O________O____ jtwc_wp WP071947 36.0000 145.000 40 0 36.0000 145.000 TC 40 36 73
1947217N20136 1947 50 WP MM GWEN 1947-08-07 21:00:00 TS 36.5111 147.497 main 565 565 P________P____ WP071947 36.5111 147.497 40 0 36.5111 147.497 TC 40 41 76
1947217N20136 1947 50 WP MM GWEN 1947-08-08 00:00:00 TS 37.0000 150.000 main 741 741 O________O____ jtwc_wp WP071947 37.0000 150.000 40 0 37.0000 150.000 TC 40 34 74
1947217N20136 1947 50 WP MM GWEN 1947-08-08 03:00:00 TS 37.4535 151.656 main 822 822 P________P____ WP071947 37.4535 151.656 40 0 37.4535 151.656 TC 40 26 67
1947217N20136 1947 50 WP MM GWEN 1947-08-08 06:00:00 TS 38.0000 153.000 main 855 851 O________O____ jtwc_wp WP071947 38.0000 153.000 40 0 38.0000 153.000 TC 40 26 59
1947217N20136 1947 50 WP MM GWEN 1947-08-08 09:00:00 TS 38.7856 154.496 main 852 840 P________P____ WP071947 38.7856 154.496 42 0 38.7856 154.496 TC 42 28 57
1947217N20136 1947 50 WP MM GWEN 1947-08-08 12:00:00 TS 39.5000 156.000 main 850 850 O________O____ jtwc_wp WP071947 39.5000 156.000 45 0 39.5000 156.000 TC 45 25 65
1947217N20136 1947 50 WP MM GWEN 1947-08-08 15:00:00 TS 39.8572 157.429 main 888 888 P________P____ WP071947 39.8572 157.429 42 0 39.8572 157.429 TC 42 24 78
1947217N20136 1947 50 WP MM GWEN 1947-08-08 18:00:00 TS 40.0000 159.000 main 969 969 O________O____ jtwc_wp WP071947 40.0000 159.000 40 0 40.0000 159.000 TC 40 27 86
1947217N20136 1947 50 WP MM GWEN 1947-08-08 21:00:00 TS 40.0394 160.965 main 1092 1092 P________P____ WP071947 40.0394 160.965 40 0 40.0394 160.965 TC 40 31 90
1947217N20136 1947 50 WP MM GWEN 1947-08-09 00:00:00 TS 40.0000 163.000 main 1222 1222 O________O____ jtwc_wp WP071947 40.0000 163.000 40 0 40.0000 163.000 TC 40 29 91
1947217N20136 1947 50 WP MM GWEN 1947-08-09 03:00:00 TS 39.9956 164.787 main 1327 1327 P________P____ WP071947 39.9956 164.787 40 0 39.9956 164.787 TC 40 27 90
1947217N20136 1947 50 WP MM GWEN 1947-08-09 06:00:00 TS 40.0000 166.500 main 1401 1401 O________O____ jtwc_wp WP071947 40.0000 166.500 40 0 40.0000 166.500 TC 40 26 90
1947217N20136 1947 50 WP MM GWEN 1947-08-09 09:00:00 TS 40.0062 168.237 main 1482 1482 P________P____ WP071947 40.0062 168.237 37 0 40.0062 168.237 TC 37 27 90
1947217N20136 1947 50 WP MM GWEN 1947-08-09 12:00:00 TS 40.0000 170.000 main 1576 O________O____ jtwc_wp WP071947 40.0000 170.000 35 0 40.0000 170.000 TC 35 27 90

Digital Typhoon Data and Search

About IBTrACS Database

This database is a web-friendly format of International Best Track Archive for Climate Stewardship (IBTrACS), a global best track data archive curated by NOAA dating back to 1842.

Updated: 2021-10-08